Time;durP1;ratioP1;P1;durP2;ratioP2;P2;SDS_P1;SDS_P2;PMS_P1;PMS_P2;Temp;Humidity;BMP_temperature;BMP_pressure;BME280_temperature;BME280_humidity;BME280_pressure;Samples;Min_cycle;Max_cycle;Signal;HPM_P1;HPM_P2
2021/05/01 00:01:07;;;;;;;23.25;18.63;;;7.70;99.90;;;;;;5089335;28;20069;-84
2021/05/01 00:03:33;;;;;;;20.77;16.35;;;7.70;99.90;;;;;;5090825;28;20017;-83
2021/05/01 00:05:59;;;;;;;21.23;15.93;;;7.70;99.90;;;;;;5086527;28;20016;-84
2021/05/01 00:08:28;;;;;;;22.33;16.88;;;7.70;99.90;;;;;;5088594;28;20073;-83
2021/05/01 00:10:54;;;;;;;24.23;16.73;;;7.60;99.90;;;;;;5090839;28;20020;-84
2021/05/01 00:13:20;;;;;;;21.38;15.50;;;7.60;99.90;;;;;;5084885;28;20043;-84
2021/05/01 00:15:45;;;;;;;21.02;16.48;;;7.60;99.90;;;;;;5088682;28;20392;-83
2021/05/01 00:18:11;;;;;;;19.27;16.45;;;7.60;99.90;;;;;;5092347;28;20028;-83
2021/05/01 00:20:36;;;;;;;19.45;15.20;;;7.60;99.90;;;;;;5091199;28;20012;-84
2021/05/01 00:23:02;;;;;;;20.00;16.73;;;7.60;99.90;;;;;;5088777;28;20040;-83
2021/05/01 00:25:27;;;;;;;26.85;17.35;;;7.60;99.90;;;;;;5087884;28;20029;-83
2021/05/01 00:27:53;;;;;;;24.65;16.45;;;7.50;99.90;;;;;;5090291;28;20028;-84
2021/05/01 00:30:19;;;;;;;18.48;13.82;;;7.50;99.90;;;;;;5089811;28;20380;-84
2021/05/01 00:32:45;;;;;;;19.67;14.43;;;7.50;99.90;;;;;;5089947;28;20039;-84
2021/05/01 00:35:11;;;;;;;17.48;13.05;;;7.40;99.90;;;;;;5089598;28;20032;-84
2021/05/01 00:37:37;;;;;;;22.70;14.68;;;7.40;99.90;;;;;;5090507;28;20026;-84
2021/05/01 00:40:04;;;;;;;16.63;12.52;;;7.40;99.90;;;;;;5088838;28;20438;-84
2021/05/01 00:42:30;;;;;;;18.45;13.77;;;7.40;99.90;;;;;;5088485;28;20020;-83
2021/05/01 00:44:55;;;;;;;14.32;12.27;;;7.40;99.90;;;;;;5088479;28;20020;-83
2021/05/01 00:47:21;;;;;;;18.40;12.98;;;7.40;99.90;;;;;;5089480;28;20450;-84
2021/05/01 00:49:46;;;;;;;17.67;12.25;;;7.40;99.90;;;;;;5088779;28;20119;-84
2021/05/01 00:52:12;;;;;;;14.90;12.30;;;7.40;99.90;;;;;;5091873;28;20364;-84
2021/05/01 00:54:37;;;;;;;16.95;11.63;;;7.40;99.90;;;;;;5090355;28;20031;-84
2021/05/01 00:57:04;;;;;;;15.38;13.02;;;7.40;99.90;;;;;;5088654;28;20020;-84
2021/05/01 00:59:30;;;;;;;14.98;13.20;;;7.30;99.90;;;;;;5081600;28;20023;-84
2021/05/01 01:01:56;;;;;;;15.65;12.88;;;7.30;99.90;;;;;;5090489;28;20012;-84
2021/05/01 01:04:22;;;;;;;27.48;15.70;;;7.30;99.90;;;;;;5090973;28;20490;-84
2021/05/01 01:06:48;;;;;;;18.58;15.85;;;7.30;99.90;;;;;;5086665;28;20024;-84
2021/05/01 01:09:14;;;;;;;17.38;14.50;;;7.30;99.90;;;;;;5086705;28;20028;-84
2021/05/01 01:11:40;;;;;;;24.23;14.85;;;7.20;99.90;;;;;;5089676;28;20498;-84
2021/05/01 01:14:08;;;;;;;18.52;14.98;;;7.20;99.90;;;;;;5087645;28;20020;-84
2021/05/01 01:16:35;;;;;;;23.17;16.15;;;7.20;99.90;;;;;;5090370;28;20031;-84
2021/05/01 01:19:01;;;;;;;17.00;14.48;;;7.10;99.90;;;;;;5089246;28;20034;-85
2021/05/01 01:21:27;;;;;;;23.08;16.40;;;7.00;99.90;;;;;;5090528;28;20185;-84
2021/05/01 01:23:54;;;;;;;22.52;16.60;;;7.00;99.90;;;;;;5082992;28;20531;-84
2021/05/01 01:26:19;;;;;;;18.27;14.75;;;6.90;99.90;;;;;;5085742;28;20090;-84
2021/05/01 01:28:46;;;;;;;17.58;13.38;;;6.90;99.90;;;;;;5088507;28;20058;-84
2021/05/01 01:31:12;;;;;;;17.52;13.63;;;6.90;99.90;;;;;;5088215;28;20024;-84
2021/05/01 01:33:38;;;;;;;16.13;12.15;;;6.80;99.90;;;;;;5087888;28;20020;-84
2021/05/01 01:36:06;;;;;;;13.98;11.43;;;6.80;99.90;;;;;;5089249;28;20102;-84
2021/05/01 01:38:31;;;;;;;12.38;10.93;;;6.80;99.90;;;;;;5091687;28;20020;-84
2021/05/01 01:40:57;;;;;;;16.30;12.23;;;6.80;99.90;;;;;;5087982;28;20116;-84
2021/05/01 01:43:25;;;;;;;19.05;13.57;;;6.80;99.90;;;;;;5088514;28;20016;-84
2021/05/01 01:45:51;;;;;;;14.70;12.02;;;6.70;99.90;;;;;;5087385;28;20024;-84
2021/05/01 01:48:17;;;;;;;14.25;12.48;;;6.70;99.90;;;;;;5089819;28;20463;-84
2021/05/01 01:50:42;;;;;;;17.25;11.95;;;6.60;99.90;;;;;;5089552;28;20043;-84
2021/05/01 01:53:08;;;;;;;12.00;10.35;;;6.60;99.90;;;;;;5089182;28;20016;-84
2021/05/01 01:55:35;;;;;;;14.63;12.70;;;6.60;99.90;;;;;;5085348;28;20016;-84
2021/05/01 01:58:01;;;;;;;13.82;11.60;;;6.60;99.90;;;;;;5091924;28;20044;-84
2021/05/01 02:00:28;;;;;;;13.60;12.05;;;6.60;99.90;;;;;;5091082;28;20043;-84
2021/05/01 02:02:54;;;;;;;16.98;13.27;;;6.50;99.90;;;;;;5093813;28;20024;-84
2021/05/01 02:05:20;;;;;;;15.30;12.32;;;6.40;99.90;;;;;;5093715;28;20020;-84
2021/05/01 02:07:46;;;;;;;14.10;11.82;;;6.30;99.90;;;;;;5093193;28;20084;-84
2021/05/01 02:10:13;;;;;;;18.23;13.75;;;6.30;99.90;;;;;;5090400;28;20085;-84
2021/05/01 02:12:39;;;;;;;23.23;16.88;;;6.30;99.90;;;;;;5092296;28;20020;-84
2021/05/01 02:15:10;;;;;;;27.30;19.35;;;6.20;99.90;;;;;;5092122;28;20028;-84
2021/05/01 02:17:41;;;;;;;23.40;18.23;;;6.20;99.90;;;;;;5091853;28;20028;-84
2021/05/01 02:20:09;;;;;;;20.08;16.98;;;6.10;99.90;;;;;;5093724;28;20502;-85
2021/05/01 02:22:35;;;;;;;19.27;16.20;;;6.10;99.90;;;;;;5093201;28;20040;-84
2021/05/01 02:25:01;;;;;;;18.17;15.93;;;6.00;99.90;;;;;;5091418;28;20225;-84
2021/05/01 02:27:27;;;;;;;18.75;15.88;;;6.00;99.90;;;;;;5090893;28;20503;-84
2021/05/01 02:29:52;;;;;;;20.35;17.20;;;6.00;99.90;;;;;;5092049;28;20028;-84
2021/05/01 02:32:18;;;;;;;24.58;19.45;;;6.00;99.90;;;;;;5090901;28;20031;-84
2021/05/01 02:34:44;;;;;;;23.13;18.05;;;5.90;99.90;;;;;;5092119;28;20052;-84
2021/05/01 02:37:09;;;;;;;20.70;17.05;;;5.90;99.90;;;;;;5090081;28;20031;-84
2021/05/01 02:39:36;;;;;;;17.85;15.48;;;5.90;99.90;;;;;;5084987;28;20030;-84
2021/05/01 02:42:01;;;;;;;17.63;14.35;;;5.90;99.90;;;;;;5080431;28;20020;-84
2021/05/01 02:44:27;;;;;;;14.90;12.50;;;6.00;99.90;;;;;;5087904;28;20047;-84
2021/05/01 02:46:52;;;;;;;15.30;12.30;;;6.00;99.90;;;;;;5091743;28;20502;-84
2021/05/01 02:49:18;;;;;;;15.45;12.60;;;6.00;99.90;;;;;;5090722;28;20027;-84
2021/05/01 02:51:44;;;;;;;21.90;16.23;;;6.00;99.90;;;;;;5087273;28;20487;-85
2021/05/01 02:54:09;;;;;;;21.50;16.60;;;6.00;99.90;;;;;;5094316;28;20085;-84
2021/05/01 02:56:35;;;;;;;17.20;14.13;;;6.00;99.90;;;;;;5093176;28;20028;-84
2021/05/01 02:59:00;;;;;;;20.95;15.60;;;6.00;99.90;;;;;;5090809;28;20099;-84
2021/05/01 03:01:26;;;;;;;18.85;14.88;;;5.90;99.90;;;;;;5089828;28;20020;-84
2021/05/01 03:03:51;;;;;;;22.52;15.48;;;5.90;99.90;;;;;;5092095;28;20016;-85
2021/05/01 03:06:17;;;;;;;17.20;13.85;;;5.90;99.90;;;;;;5092954;28;20612;-85
2021/05/01 03:08:42;;;;;;;15.75;13.57;;;5.90;99.90;;;;;;5088686;28;20032;-85
2021/05/01 03:11:08;;;;;;;14.85;12.23;;;5.90;99.90;;;;;;5091167;28;20066;-85
2021/05/01 03:13:34;;;;;;;19.42;14.20;;;5.80;99.90;;;;;;5089997;28;20039;-85
2021/05/01 03:15:59;;;;;;;23.15;14.85;;;5.80;99.90;;;;;;5092078;28;20111;-85
2021/05/01 03:18:25;;;;;;;23.67;17.52;;;5.70;99.90;;;;;;5083647;28;20028;-85
2021/05/01 03:20:52;;;;;;;22.42;18.33;;;5.70;99.90;;;;;;5091653;28;20020;-85
2021/05/01 03:23:19;;;;;;;21.98;17.65;;;5.60;99.90;;;;;;5073973;28;20025;-84
2021/05/01 03:25:45;;;;;;;26.20;19.20;;;5.50;99.90;;;;;;5068745;28;20058;-85
2021/05/01 03:28:10;;;;;;;22.65;18.90;;;5.50;99.90;;;;;;5053945;28;20028;-85
2021/05/01 03:30:35;;;;;;;22.25;18.35;;;5.40;99.90;;;;;;5052490;28;20039;-85
2021/05/01 03:33:01;;;;;;;21.13;15.30;;;5.40;99.90;;;;;;5049139;28;20102;-85
2021/05/01 03:35:27;;;;;;;19.25;13.38;;;5.50;99.90;;;;;;5054815;28;20418;-85
2021/05/01 03:37:52;;;;;;;14.82;12.85;;;5.50;99.90;;;;;;5054352;28;20388;-85
2021/05/01 03:40:18;;;;;;;16.40;13.40;;;5.50;99.90;;;;;;5052889;28;20100;-85
2021/05/01 03:42:43;;;;;;;14.73;12.30;;;5.60;99.90;;;;;;5050596;28;20025;-85
2021/05/01 03:45:10;;;;;;;17.92;12.52;;;5.60;99.90;;;;;;5050816;28;20058;-85
2021/05/01 03:47:35;;;;;;;122.03;13.65;;;5.50;99.90;;;;;;5052189;28;20017;-85
2021/05/01 03:50:01;;;;;;;13.70;11.45;;;5.50;99.90;;;;;;5054108;28;20103;-85
2021/05/01 03:52:27;;;;;;;14.07;11.85;;;5.50;99.90;;;;;;5054657;28;20069;-85
2021/05/01 03:54:52;;;;;;;21.38;14.75;;;5.40;99.90;;;;;;5054046;28;20025;-85
2021/05/01 03:57:18;;;;;;;18.92;14.60;;;5.40;99.90;;;;;;5054966;28;20434;-85
2021/05/01 03:59:43;;;;;;;20.27;16.27;;;5.40;99.90;;;;;;5050305;28;20481;-85
2021/05/01 04:02:09;;;;;;;21.65;17.02;;;5.40;99.90;;;;;;5072210;28;20491;-85
2021/05/01 04:04:35;;;;;;;23.10;16.73;;;5.40;99.90;;;;;;5049356;28;20486;-85
2021/05/01 04:07:00;;;;;;;25.90;19.45;;;5.40;99.90;;;;;;5054829;28;20023;-85
2021/05/01 04:09:26;;;;;;;23.90;18.13;;;5.40;99.90;;;;;;5052885;28;20036;-85
2021/05/01 04:11:51;;;;;;;22.13;18.42;;;5.40;99.90;;;;;;5051539;28;20113;-85
2021/05/01 04:14:17;;;;;;;36.30;15.68;;;5.40;99.90;;;;;;5070854;28;20055;-85
2021/05/01 04:16:42;;;;;;;79.07;16.77;;;5.40;99.90;;;;;;5052960;28;20035;-86
2021/05/01 04:19:08;;;;;;;180.43;15.85;;;5.40;99.90;;;;;;5053132;28;20493;-86
2021/05/01 04:21:33;;;;;;;102.60;11.10;;;5.30;99.90;;;;;;5065752;28;20159;-85
2021/05/01 04:23:59;;;;;;;89.72;9.43;;;5.30;99.90;;;;;;5054601;28;20042;-86
2021/05/01 04:26:24;;;;;;;118.72;11.15;;;5.20;99.90;;;;;;5070200;28;20020;-86
2021/05/01 04:28:53;;;;;;;40.83;11.23;;;5.10;99.90;;;;;;5051715;28;20107;-86
2021/05/01 04:31:19;;;;;;;19.52;12.80;;;5.00;99.90;;;;;;5052356;28;20094;-85
2021/05/01 04:33:45;;;;;;;26.20;16.67;;;4.90;99.90;;;;;;5066728;28;20039;-86
2021/05/01 04:36:10;;;;;;;27.33;18.88;;;5.00;99.90;;;;;;5047269;28;20380;-86
2021/05/01 04:38:36;;;;;;;24.45;19.17;;;4.90;99.90;;;;;;5054396;28;20016;-86
2021/05/01 04:41:01;;;;;;;27.77;19.73;;;4.90;99.90;;;;;;5072094;28;20024;-86
2021/05/01 04:43:27;;;;;;;30.55;23.05;;;4.90;99.90;;;;;;5049666;28;20099;-86
2021/05/01 04:45:54;;;;;;;41.85;29.08;;;4.90;99.90;;;;;;5050820;28;20012;-85
2021/05/01 04:48:20;;;;;;;36.85;26.08;;;4.90;99.90;;;;;;5047970;28;20115;-86
2021/05/01 04:50:50;;;;;;;40.55;27.55;;;4.80;99.90;;;;;;5053123;28;20095;-86
2021/05/01 04:53:16;;;;;;;41.67;28.08;;;4.70;99.90;;;;;;5020408;28;20018;-86
2021/05/01 04:55:41;;;;;;;38.22;26.95;;;4.70;99.90;;;;;;5053879;28;20024;-85
2021/05/01 04:58:07;;;;;;;32.88;25.00;;;4.60;99.90;;;;;;5054099;28;20028;-86
2021/05/01 05:00:32;;;;;;;40.13;27.30;;;4.70;99.90;;;;;;5050766;28;20020;-86
2021/05/01 05:02:58;;;;;;;37.70;26.30;;;4.70;99.90;;;;;;5053473;28;20027;-86
2021/05/01 05:05:23;;;;;;;38.22;26.83;;;4.70;99.90;;;;;;5071065;28;20019;-85
2021/05/01 05:07:49;;;;;;;33.95;24.05;;;4.80;99.90;;;;;;5072281;28;20100;-86
2021/05/01 05:10:15;;;;;;;33.10;23.08;;;4.80;99.90;;;;;;5064970;28;20016;-86
2021/05/01 05:12:42;;;;;;;34.15;24.50;;;4.80;99.90;;;;;;5052140;28;20027;-86
2021/05/01 05:15:08;;;;;;;31.58;23.73;;;4.90;99.90;;;;;;5049997;28;20029;-86
2021/05/01 05:17:34;;;;;;;34.65;24.73;;;4.90;99.90;;;;;;5067097;28;20442;-86
2021/05/01 05:20:00;;;;;;;41.45;28.73;;;5.00;99.90;;;;;;5060044;28;20017;-86
2021/05/01 05:22:25;;;;;;;38.67;28.45;;;4.90;99.90;;;;;;5061324;28;20094;-84
2021/05/01 05:24:51;;;;;;;35.72;26.63;;;5.00;99.90;;;;;;5071227;28;20028;-83
2021/05/01 05:27:17;;;;;;;47.05;33.17;;;4.90;99.90;;;;;;5069962;28;20024;-84
2021/05/01 05:29:49;;;;;;;49.20;33.97;;;5.00;99.90;;;;;;5071068;28;20373;-84
2021/05/01 05:32:15;;;;;;;47.13;33.70;;;5.00;99.90;;;;;;5074640;28;20024;-84
2021/05/01 05:34:41;;;;;;;58.85;39.58;;;5.00;99.90;;;;;;5076450;28;20393;-84
2021/05/01 05:37:06;;;;;;;49.80;35.45;;;5.00;99.90;;;;;;5067164;28;20013;-84
2021/05/01 05:39:32;;;;;;;53.15;37.60;;;5.00;99.90;;;;;;5072752;28;20376;-84
2021/05/01 05:41:57;;;;;;;51.33;36.53;;;5.00;99.90;;;;;;5078026;28;20032;-84
2021/05/01 05:44:23;;;;;;;44.28;33.97;;;5.10;99.90;;;;;;5078269;28;20016;-84
2021/05/01 05:46:48;;;;;;;49.72;35.75;;;5.10;99.90;;;;;;5079423;28;20012;-84
2021/05/01 05:49:14;;;;;;;61.50;41.75;;;5.10;99.90;;;;;;5078167;28;20529;-84
2021/05/01 05:51:40;;;;;;;52.53;38.08;;;5.20;99.90;;;;;;5077800;28;20025;-84
2021/05/01 05:54:06;;;;;;;57.97;38.97;;;5.20;99.90;;;;;;5077996;28;20060;-84
2021/05/01 05:56:34;;;;;;;53.03;38.67;;;5.30;99.90;;;;;;5079190;28;20063;-84
2021/05/01 05:58:59;;;;;;;53.67;37.63;;;5.30;99.90;;;;;;5077978;28;20052;-84
2021/05/01 06:01:26;;;;;;;49.85;37.00;;;5.30;99.90;;;;;;5079308;28;20105;-83
2021/05/01 06:03:54;;;;;;;55.22;39.00;;;5.40;99.90;;;;;;5078011;28;20035;-83
2021/05/01 06:06:24;;;;;;;55.67;39.95;;;5.40;99.90;;;;;;5077748;28;20052;-84
2021/05/01 06:08:50;;;;;;;;;;;5.50;99.90;;;;;;5078408;28;20020;-83
2021/05/01 06:11:20;;;;;;;56.35;38.50;;;5.50;99.90;;;;;;5066353;28;19904;-84
2021/05/01 06:13:47;;;;;;;56.97;41.30;;;5.50;99.90;;;;;;5067388;28;20361;-83
2021/05/01 06:16:13;;;;;;;52.88;38.33;;;5.60;99.90;;;;;;5068160;28;20052;-83
2021/05/01 06:18:41;;;;;;;53.72;38.97;;;5.70;99.90;;;;;;5067661;28;20056;-83
2021/05/01 06:21:13;;;;;;;51.47;38.05;;;5.70;99.90;;;;;;5069897;28;20028;-83
2021/05/01 06:23:40;;;;;;;54.60;37.05;;;5.80;99.90;;;;;;5078521;28;20085;-83
2021/05/01 06:26:06;;;;;;;51.22;36.10;;;5.80;99.90;;;;;;5060928;28;20050;-83
2021/05/01 06:28:33;;;;;;;52.85;37.15;;;5.90;99.90;;;;;;5076652;28;20472;-83
2021/05/01 06:31:06;;;;;;;52.38;39.13;;;5.90;99.90;;;;;;5060893;28;20024;-83
2021/05/01 06:33:37;;;;;;;53.45;38.80;;;6.00;99.90;;;;;;5061031;28;20032;-83
2021/05/01 06:36:03;;;;;;;52.58;34.90;;;6.10;99.90;;;;;;5060852;28;20032;-84
2021/05/01 06:38:29;;;;;;;50.42;33.78;;;6.10;99.90;;;;;;5078791;28;20070;-82
2021/05/01 06:41:03;;;;;;;47.05;33.65;;;6.20;99.90;;;;;;5060971;28;20052;-83
2021/05/01 06:44:01;;;;;;;44.20;32.50;;;6.30;99.90;;;;;;5076368;28;20013;-83
2021/05/01 06:46:29;;;;;;;39.38;28.52;;;6.40;99.90;;;;;;5056547;28;20077;-84
2021/05/01 06:48:57;;;;;;;34.83;25.63;;;6.50;99.90;;;;;;5075553;28;20094;-84
2021/05/01 06:51:22;;;;;;;33.55;25.40;;;6.60;99.90;;;;;;5057934;28;20380;-85
2021/05/01 06:53:48;;;;;;;34.55;25.30;;;6.70;99.90;;;;;;5057074;28;20027;-83
2021/05/01 06:56:14;;;;;;;28.95;22.88;;;6.70;99.90;;;;;;5057028;28;20020;-83
2021/05/01 06:58:42;;;;;;;31.88;23.35;;;6.80;99.90;;;;;;5056652;28;20082;-83
2021/05/01 07:01:13;;;;;;;31.65;22.67;;;6.90;99.90;;;;;;5056939;28;20491;-83
2021/05/01 07:03:41;;;;;;;30.15;20.23;;;7.00;99.90;;;;;;5057151;28;20028;-83
2021/05/01 07:06:08;;;;;;;30.10;19.88;;;7.00;99.90;;;;;;5069069;28;20045;-83
2021/05/01 07:08:34;;;;;;;22.45;18.48;;;7.00;99.90;;;;;;5054215;28;20020;-83
2021/05/01 07:11:01;;;;;;;31.38;19.83;;;7.10;99.90;;;;;;5036596;28;20396;-84
2021/05/01 07:13:27;;;;;;;23.08;18.17;;;7.20;99.90;;;;;;5074485;28;20472;-85
2021/05/01 07:15:59;;;;;;;21.83;16.08;;;7.20;99.90;;;;;;5047936;28;20039;-85
2021/05/01 07:18:25;;;;;;;24.23;16.42;;;7.30;99.90;;;;;;5053718;28;20392;-83
2021/05/01 07:20:51;;;;;;;19.08;14.98;;;7.30;99.90;;;;;;5055064;28;20021;-85
2021/05/01 07:23:16;;;;;;;21.55;15.20;;;7.40;99.90;;;;;;5053388;28;20500;-83
2021/05/01 07:25:42;;;;;;;17.92;12.90;;;7.50;99.90;;;;;;5035482;28;20032;-84
2021/05/01 07:28:13;;;;;;;18.10;12.23;;;7.50;99.90;;;;;;5012639;28;20040;-85
2021/05/01 07:30:43;;;;;;;18.83;13.50;;;7.60;99.90;;;;;;5021555;28;20029;-84
2021/05/01 07:33:23;;;;;;;;;;;7.80;99.90;;;;;;5037422;28;20143;-83
2021/05/01 07:35:51;;;;;;;23.20;13.70;;;7.80;99.90;;;;;;5036862;28;19904;-84
2021/05/01 07:38:17;;;;;;;20.40;14.23;;;7.80;99.90;;;;;;5036196;28;20503;-83
2021/05/01 07:40:43;;;;;;;19.75;14.10;;;7.90;99.90;;;;;;5036758;28;20028;-84
2021/05/01 07:43:14;;;;;;;20.92;13.98;;;8.00;99.90;;;;;;5054630;28;20096;-83
2021/05/01 07:45:39;;;;;;;15.48;12.05;;;8.10;99.90;;;;;;5044100;28;20108;-84
2021/05/01 07:48:09;;;;;;;16.02;11.80;;;8.10;99.90;;;;;;5056389;28;20132;-85
2021/05/01 07:50:35;;;;;;;13.27;11.25;;;8.20;99.90;;;;;;5074374;28;20222;-83
2021/05/01 07:53:03;;;;;;;18.77;12.85;;;8.30;99.90;;;;;;5056220;28;20032;-84
2021/05/01 07:55:29;;;;;;;20.30;12.95;;;8.20;99.90;;;;;;5055381;28;20052;-83
2021/05/01 07:57:55;;;;;;;16.42;11.93;;;8.20;99.90;;;;;;5052874;28;20016;-83
2021/05/01 08:00:20;;;;;;;16.10;12.63;;;8.20;99.90;;;;;;5055552;28;20021;-84
2021/05/01 08:02:47;;;;;;;17.77;11.80;;;8.30;99.90;;;;;;5073390;28;20050;-84
2021/05/01 08:05:14;;;;;;;12.10;9.60;;;8.50;99.90;;;;;;5073470;28;20031;-85
2021/05/01 08:07:40;;;;;;;12.32;10.02;;;8.60;99.90;;;;;;5073486;28;20480;-85
2021/05/01 08:10:06;;;;;;;17.15;11.10;;;8.80;99.90;;;;;;5055651;28;20028;-83
2021/05/01 08:12:32;;;;;;;15.20;8.77;;;9.00;99.90;;;;;;5055585;28;20036;-83
2021/05/01 08:14:57;;;;;;;11.05;7.32;;;9.00;99.90;;;;;;5074112;28;20028;-84
2021/05/01 08:17:23;;;;;;;9.45;7.63;;;9.10;99.90;;;;;;5072859;28;20541;-84
2021/05/01 08:19:52;;;;;;;12.40;8.15;;;9.10;99.20;;;;;;5055924;28;20020;-83
2021/05/01 08:22:18;;;;;;;9.60;7.27;;;9.20;98.80;;;;;;5064737;28;20485;-83
2021/05/01 08:24:43;;;;;;;13.20;8.18;;;9.10;98.20;;;;;;5035756;28;20029;-82
2021/05/01 08:27:09;;;;;;;12.13;7.43;;;9.10;98.60;;;;;;5053733;28;20017;-82
2021/05/01 08:29:34;;;;;;;9.52;6.63;;;9.10;98.90;;;;;;5035757;28;20462;-84
2021/05/01 08:32:00;;;;;;;11.60;7.78;;;9.30;99.60;;;;;;5053676;28;20029;-83
2021/05/01 08:34:26;;;;;;;11.73;8.55;;;9.60;98.70;;;;;;5035498;28;20388;-83
2021/05/01 08:36:51;;;;;;;13.60;7.10;;;9.80;98.80;;;;;;5053097;28;20033;-83
2021/05/01 08:39:17;;;;;;;9.98;5.78;;;9.90;97.40;;;;;;5035676;28;20021;-85
2021/05/01 08:41:42;;;;;;;8.52;6.30;;;9.80;97.30;;;;;;5036152;28;20111;-85
2021/05/01 08:44:10;;;;;;;9.07;5.43;;;9.70;96.50;;;;;;5035906;28;20025;-84
2021/05/01 08:46:36;;;;;;;9.40;5.22;;;9.60;95.80;;;;;;5035792;28;20384;-84
2021/05/01 08:49:03;;;;;;;9.05;5.70;;;9.70;96.40;;;;;;5053377;28;20017;-84
2021/05/01 08:51:29;;;;;;;8.90;6.20;;;9.80;96.70;;;;;;5053516;28;20028;-85
2021/05/01 08:53:55;;;;;;;8.27;5.40;;;9.90;95.70;;;;;;5035505;28;20024;-84
2021/05/01 08:56:21;;;;;;;13.25;5.78;;;10.10;95.10;;;;;;5035309;28;20037;-84
2021/05/01 08:58:49;;;;;;;5.35;4.30;;;10.20;94.80;;;;;;5035140;28;20392;-83
2021/05/01 09:01:15;;;;;;;8.82;4.90;;;10.30;93.90;;;;;;5053287;28;20025;-84
2021/05/01 09:03:43;;;;;;;10.88;5.22;;;10.20;92.90;;;;;;5053026;28;20028;-83
2021/05/01 09:06:09;;;;;;;8.68;4.60;;;10.20;92.20;;;;;;5035056;28;20086;-84
2021/05/01 09:08:40;;;;;;;10.20;5.65;;;10.20;91.60;;;;;;5035308;28;20079;-83
2021/05/01 09:11:05;;;;;;;9.90;5.35;;;10.20;92.50;;;;;;5053012;28;20029;-85
2021/05/01 09:13:31;;;;;;;6.30;5.28;;;10.30;92.90;;;;;;5035418;28;20481;-85
2021/05/01 09:16:11;;;;;;;9.77;5.68;;;10.50;92.00;;;;;;5052810;28;20100;-83
2021/05/01 09:18:54;;;;;;;9.00;5.57;;;10.80;91.80;;;;;;5035042;28;20086;-84
2021/05/01 09:21:22;;;;;;;9.32;5.82;;;11.00;91.30;;;;;;5034957;28;20392;-83
2021/05/01 09:23:48;;;;;;;7.53;5.38;;;11.00;91.20;;;;;;5035123;28;20025;-84
2021/05/01 09:26:18;;;;;;;8.75;4.53;;;11.10;90.50;;;;;;5052602;28;20028;-84
2021/05/01 09:28:45;;;;;;;6.40;4.47;;;10.90;88.70;;;;;;5034699;28;20120;-84
2021/05/01 09:31:13;;;;;;;9.63;5.13;;;10.70;88.80;;;;;;5035138;28;20079;-84
2021/05/01 09:33:52;;;;;;;8.75;5.93;;;10.50;89.30;;;;;;5034953;28;20116;-84
2021/05/01 09:36:19;;;;;;;8.20;4.90;;;10.30;89.40;;;;;;5052913;28;20025;-84
2021/05/01 09:38:48;;;;;;;10.32;5.65;;;10.30;90.60;;;;;;5034750;28;20021;-84
2021/05/01 09:41:16;;;;;;;5.53;3.55;;;10.60;90.70;;;;;;5053097;28;20021;-83
2021/05/01 09:44:16;;;;;;;4.25;3.03;;;10.70;90.30;;;;;;5034830;28;20021;-84
2021/05/01 09:46:43;;;;;;;;;;;11.10;91.50;;;;;;5034624;28;20055;-86
2021/05/01 09:49:13;;;;;;;4.18;3.35;;;11.50;90.10;;;;;;5052661;28;19911;-84
2021/05/01 09:51:44;;;;;;;;;;;12.40;85.20;;;;;;5035090;28;20029;-84
2021/05/01 09:54:11;;;;;;;4.88;2.63;;;15.00;81.90;;;;;;5052671;28;19905;-84
2021/05/01 09:56:39;;;;;;;7.75;3.88;;;17.30;69.70;;;;;;5052371;28;20024;-85
2021/05/01 09:59:06;;;;;;;5.53;3.67;;;18.90;62.20;;;;;;5034537;28;20029;-86
2021/05/01 10:01:31;;;;;;;6.53;3.33;;;18.20;56.50;;;;;;5052589;28;20047;-83
2021/05/01 10:04:18;;;;;;;5.47;3.53;;;16.90;58.70;;;;;;5034545;28;20485;-84
2021/05/01 10:06:51;;;;;;;6.07;3.85;;;15.70;60.30;;;;;;5034585;28;20086;-84
2021/05/01 10:09:37;;;;;;;5.55;4.10;;;14.50;63.60;;;;;;5034615;28;20118;-85
2021/05/01 10:12:06;;;;;;;7.32;4.10;;;13.60;64.90;;;;;;5034492;28;20393;-85
2021/05/01 10:14:44;;;;;;;10.52;5.45;;;12.90;67.70;;;;;;5052390;28;20040;-83
2021/05/01 10:17:23;;;;;;;8.07;4.07;;;12.50;69.30;;;;;;5017143;28;20116;-84
2021/05/01 10:19:49;;;;;;;;;;;12.10;69.70;;;;;;5017432;28;20075;-84
2021/05/01 10:22:25;;;;;;;7.32;4.07;;;11.80;71.00;;;;;;5036199;28;19917;-83
2021/05/01 10:24:51;;;;;;;8.20;4.30;;;11.60;72.50;;;;;;5018523;28;20450;-83
2021/05/01 10:27:19;;;;;;;7.15;4.35;;;11.90;75.50;;;;;;5018169;28;20112;-83
2021/05/01 10:29:45;;;;;;;6.68;3.97;;;13.10;74.20;;;;;;5018307;28;20032;-84
2021/05/01 10:32:33;;;;;;;7.55;3.72;;;15.50;69.60;;;;;;5036162;28;20040;-84
2021/05/01 10:35:00;;;;;;;5.50;3.65;;;16.90;61.40;;;;;;5018283;28;20489;-84
2021/05/01 10:37:30;;;;;;;7.25;3.72;;;17.10;59.40;;;;;;5017966;28;20481;-84
2021/05/01 10:39:57;;;;;;;5.63;3.65;;;18.20;56.40;;;;;;5018150;28;20143;-85
2021/05/01 10:42:23;;;;;;;3.63;3.10;;;19.10;52.90;;;;;;5018119;28;20025;-85
2021/05/01 10:45:00;;;;;;;4.60;3.38;;;19.50;50.30;;;;;;5018263;28;20113;-84
2021/05/01 10:47:26;;;;;;;4.45;2.92;;;18.10;51.00;;;;;;5018128;28;20076;-84
2021/05/01 10:49:55;;;;;;;4.90;2.72;;;16.60;51.00;;;;;;5035199;28;20025;-83
2021/05/01 10:52:22;;;;;;;6.83;3.37;;;15.70;54.40;;;;;;5017983;28;20026;-83
2021/05/01 10:55:02;;;;;;;6.05;3.10;;;14.90;55.60;;;;;;5017880;28;20477;-84
2021/05/01 10:57:30;;;;;;;7.30;3.33;;;14.20;53.90;;;;;;5017762;28;20469;-83
2021/05/01 11:00:00;;;;;;;5.10;3.05;;;13.50;56.10;;;;;;5017673;28;20033;-85
2021/05/01 11:02:33;;;;;;;7.10;3.70;;;12.90;58.00;;;;;;5035083;28;20018;-83
2021/05/01 11:05:01;;;;;;;6.50;3.25;;;12.60;63.10;;;;;;5039369;28;20024;-84
2021/05/01 11:07:43;;;;;;;6.88;3.60;;;12.20;66.20;;;;;;5055375;28;20086;-82
2021/05/01 11:10:11;;;;;;;6.10;3.47;;;11.90;69.10;;;;;;5019682;28;20478;-83
2021/05/01 11:12:39;;;;;;;7.75;4.47;;;11.60;72.30;;;;;;5028023;28;20083;-83
2021/05/01 11:15:12;;;;;;;6.07;3.50;;;11.50;73.10;;;;;;5036793;28;20021;-84
2021/05/01 11:17:47;;;;;;;8.52;4.05;;;11.50;74.90;;;;;;5017563;28;20051;-85
2021/05/01 11:20:16;;;;;;;7.03;4.80;;;11.60;76.50;;;;;;5028672;28;20165;-84
2021/05/01 11:22:44;;;;;;;8.97;4.13;;;11.60;76.60;;;;;;5051032;28;20435;-84
2021/05/01 11:25:16;;;;;;;6.40;4.00;;;11.70;76.50;;;;;;5036741;28;20256;-84
2021/05/01 11:27:44;;;;;;;7.75;4.13;;;11.90;76.30;;;;;;5054372;28;20057;-84
2021/05/01 11:30:13;;;;;;;9.52;5.05;;;12.30;75.90;;;;;;5033397;28;20017;-84
2021/05/01 11:32:39;;;;;;;6.17;4.33;;;13.10;74.70;;;;;;5036486;28;20025;-82
2021/05/01 11:35:11;;;;;;;4.20;3.45;;;14.20;73.30;;;;;;5032171;28;20268;-82
2021/05/01 11:37:41;;;;;;;6.80;3.10;;;16.40;68.40;;;;;;5054438;28;20036;-82
2021/05/01 11:40:10;;;;;;;3.47;2.40;;;18.50;60.10;;;;;;5054053;28;20482;-82
2021/05/01 11:42:38;;;;;;;5.07;3.30;;;20.20;53.70;;;;;;5032800;28;20024;-82
2021/05/01 11:45:09;;;;;;;5.63;3.50;;;21.20;50.20;;;;;;5032229;28;20017;-82
2021/05/01 11:47:36;;;;;;;6.30;3.40;;;21.60;45.60;;;;;;5058330;28;20028;-84
2021/05/01 11:50:02;;;;;;;6.40;3.42;;;20.60;45.90;;;;;;5025095;28;20021;-83
2021/05/01 11:53:05;;;;;;;5.22;2.80;;;18.90;44.40;;;;;;5032361;28;20036;-82
2021/05/01 11:55:33;;;;;;;4.65;3.55;;;17.40;49.50;;;;;;5036958;28;20035;-82
2021/05/01 11:58:03;;;;;;;6.03;3.72;;;16.40;51.20;;;;;;5050839;28;20021;-81
2021/05/01 12:00:37;;;;;;;6.22;3.55;;;15.70;52.90;;;;;;5070169;28;20046;-81
2021/05/01 12:03:05;;;;;;;5.43;3.20;;;15.80;54.50;;;;;;5073373;28;20032;-82
2021/05/01 12:05:34;;;;;;;4.80;2.95;;;17.50;51.30;;;;;;5035581;28;20017;-81
2021/05/01 12:08:05;;;;;;;3.63;2.50;;;19.30;50.40;;;;;;5053264;28;20126;-83
2021/05/01 12:10:36;;;;;;;7.13;2.47;;;20.90;46.80;;;;;;5048038;28;20026;-82
2021/05/01 12:13:24;;;;;;;3.92;2.60;;;21.20;44.20;;;;;;5027887;28;20476;-82
2021/05/01 12:15:54;;;;;;;4.80;2.00;;;19.90;42.30;;;;;;5023863;28;20025;-84
2021/05/01 12:18:21;;;;;;;4.57;2.00;;;18.70;44.30;;;;;;5023953;28;20029;-81
2021/05/01 12:20:53;;;;;;;3.33;2.30;;;17.70;46.00;;;;;;5020921;28;20028;-82
2021/05/01 12:23:45;;;;;;;5.30;2.95;;;17.20;48.30;;;;;;5052616;28;20041;-81
2021/05/01 12:26:36;;;;;;;4.80;3.13;;;16.70;50.40;;;;;;5029215;28;20036;-82
2021/05/01 12:29:26;;;;;;;4.47;3.30;;;16.10;49.00;;;;;;5032931;28;20040;-82
2021/05/01 12:31:56;;;;;;;5.13;3.38;;;15.70;51.10;;;;;;5043323;28;20433;-82
2021/05/01 12:34:43;;;;;;;4.65;3.33;;;15.50;52.30;;;;;;5031439;28;20435;-82
2021/05/01 12:37:10;;;;;;;4.72;3.45;;;15.50;52.90;;;;;;5034475;28;20056;-82
2021/05/01 12:39:37;;;;;;;7.13;4.22;;;15.40;52.30;;;;;;5014494;28;20439;-82
2021/05/01 12:42:17;;;;;;;5.30;3.60;;;15.10;52.80;;;;;;5024296;28;20025;-82
2021/05/01 12:44:46;;;;;;;5.93;3.42;;;14.70;54.20;;;;;;5043099;28;20026;-80
2021/05/01 12:47:11;;;;;;;7.40;3.75;;;14.60;55.60;;;;;;5052997;28;20111;-81